sensor_id;sensor_type;location;lat;lon;timestamp;P1;durP1;ratioP1;P2;durP2;ratioP2
23474;SDS011;11910;52.086;21.066;2023-11-19T00:00:10;51.28;;;32.22;;
23474;SDS011;11910;52.086;21.066;2023-11-19T00:02:39;53.78;;;31.88;;
23474;SDS011;11910;52.086;21.066;2023-11-19T00:05:05;50.95;;;31.17;;
23474;SDS011;11910;52.086;21.066;2023-11-19T00:07:37;48.85;;;30.88;;
23474;SDS011;11910;52.086;21.066;2023-11-19T00:10:07;48.15;;;31.52;;
23474;SDS011;11910;52.086;21.066;2023-11-19T00:12:37;50.45;;;31.45;;
23474;SDS011;11910;52.086;21.066;2023-11-19T00:15:07;53.97;;;32.63;;
23474;SDS011;11910;52.086;21.066;2023-11-19T00:17:42;47.70;;;31.52;;
23474;SDS011;11910;52.086;21.066;2023-11-19T00:20:10;55.33;;;33.08;;
23474;SDS011;11910;52.086;21.066;2023-11-19T00:22:39;52.25;;;32.03;;
23474;SDS011;11910;52.086;21.066;2023-11-19T00:25:06;52.28;;;32.80;;
23474;SDS011;11910;52.086;21.066;2023-11-19T00:27:33;54.50;;;32.42;;
23474;SDS011;11910;52.086;21.066;2023-11-19T00:29:58;52.55;;;31.90;;
23474;SDS011;11910;52.086;21.066;2023-11-19T00:32:24;51.60;;;31.90;;
23474;SDS011;11910;52.086;21.066;2023-11-19T00:34:49;51.55;;;32.30;;
23474;SDS011;11910;52.086;21.066;2023-11-19T00:37:15;56.00;;;33.22;;
23474;SDS011;11910;52.086;21.066;2023-11-19T00:39:41;50.70;;;31.30;;
23474;SDS011;11910;52.086;21.066;2023-11-19T00:42:07;49.78;;;32.25;;
23474;SDS011;11910;52.086;21.066;2023-11-19T00:44:33;55.33;;;32.45;;
23474;SDS011;11910;52.086;21.066;2023-11-19T00:46:58;52.58;;;32.33;;
23474;SDS011;11910;52.086;21.066;2023-11-19T00:49:25;51.70;;;32.78;;
23474;SDS011;11910;52.086;21.066;2023-11-19T00:51:50;55.30;;;32.90;;
23474;SDS011;11910;52.086;21.066;2023-11-19T00:54:16;48.92;;;31.95;;
23474;SDS011;11910;52.086;21.066;2023-11-19T00:56:42;49.22;;;31.67;;
23474;SDS011;11910;52.086;21.066;2023-11-19T00:59:07;53.88;;;32.30;;
23474;SDS011;11910;52.086;21.066;2023-11-19T01:01:33;54.10;;;32.97;;
23474;SDS011;11910;52.086;21.066;2023-11-19T01:03:59;54.42;;;32.15;;
23474;SDS011;11910;52.086;21.066;2023-11-19T01:06:27;54.38;;;32.40;;
23474;SDS011;11910;52.086;21.066;2023-11-19T01:08:54;55.17;;;33.40;;
23474;SDS011;11910;52.086;21.066;2023-11-19T01:11:23;57.08;;;33.10;;
23474;SDS011;11910;52.086;21.066;2023-11-19T01:13:49;53.95;;;33.10;;
23474;SDS011;11910;52.086;21.066;2023-11-19T01:16:15;54.20;;;34.00;;
23474;SDS011;11910;52.086;21.066;2023-11-19T01:18:41;53.35;;;32.53;;
23474;SDS011;11910;52.086;21.066;2023-11-19T01:21:07;55.85;;;34.22;;
23474;SDS011;11910;52.086;21.066;2023-11-19T01:23:33;58.08;;;34.83;;
23474;SDS011;11910;52.086;21.066;2023-11-19T01:25:59;56.58;;;34.42;;
23474;SDS011;11910;52.086;21.066;2023-11-19T01:28:25;58.70;;;35.35;;
23474;SDS011;11910;52.086;21.066;2023-11-19T01:30:50;50.80;;;32.15;;
23474;SDS011;11910;52.086;21.066;2023-11-19T01:33:16;55.25;;;35.40;;
23474;SDS011;11910;52.086;21.066;2023-11-19T01:35:42;58.97;;;34.85;;
23474;SDS011;11910;52.086;21.066;2023-11-19T01:38:07;56.47;;;33.90;;
23474;SDS011;11910;52.086;21.066;2023-11-19T01:40:36;55.22;;;33.42;;
23474;SDS011;11910;52.086;21.066;2023-11-19T01:43:03;59.90;;;34.92;;
23474;SDS011;11910;52.086;21.066;2023-11-19T01:45:29;57.83;;;34.28;;
23474;SDS011;11910;52.086;21.066;2023-11-19T01:47:56;60.42;;;33.83;;
23474;SDS011;11910;52.086;21.066;2023-11-19T01:50:22;57.53;;;35.03;;
23474;SDS011;11910;52.086;21.066;2023-11-19T01:52:50;61.63;;;34.45;;
23474;SDS011;11910;52.086;21.066;2023-11-19T01:55:19;65.72;;;37.00;;
23474;SDS011;11910;52.086;21.066;2023-11-19T01:57:46;63.75;;;36.53;;
23474;SDS011;11910;52.086;21.066;2023-11-19T02:00:14;62.30;;;35.38;;
23474;SDS011;11910;52.086;21.066;2023-11-19T02:02:41;62.53;;;35.42;;
23474;SDS011;11910;52.086;21.066;2023-11-19T02:05:08;69.57;;;36.50;;
23474;SDS011;11910;52.086;21.066;2023-11-19T02:07:36;62.75;;;35.15;;
23474;SDS011;11910;52.086;21.066;2023-11-19T02:10:01;66.05;;;37.25;;
23474;SDS011;11910;52.086;21.066;2023-11-19T02:12:27;63.90;;;35.88;;
23474;SDS011;11910;52.086;21.066;2023-11-19T02:14:59;65.75;;;36.17;;
23474;SDS011;11910;52.086;21.066;2023-11-19T02:17:28;69.43;;;35.60;;
23474;SDS011;11910;52.086;21.066;2023-11-19T02:19:56;74.80;;;38.10;;
23474;SDS011;11910;52.086;21.066;2023-11-19T02:22:22;75.20;;;36.20;;
23474;SDS011;11910;52.086;21.066;2023-11-19T02:24:48;72.45;;;36.45;;
23474;SDS011;11910;52.086;21.066;2023-11-19T02:27:50;61.47;;;33.90;;
23474;SDS011;11910;52.086;21.066;2023-11-19T02:30:13;71.47;;;35.95;;
23474;SDS011;11910;52.086;21.066;2023-11-19T02:32:40;65.93;;;34.53;;
23474;SDS011;11910;52.086;21.066;2023-11-19T02:35:07;70.63;;;37.63;;
23474;SDS011;11910;52.086;21.066;2023-11-19T02:37:36;70.82;;;35.67;;
23474;SDS011;11910;52.086;21.066;2023-11-19T02:40:04;68.47;;;35.60;;
23474;SDS011;11910;52.086;21.066;2023-11-19T02:42:30;63.92;;;34.88;;
23474;SDS011;11910;52.086;21.066;2023-11-19T02:44:56;63.47;;;34.20;;
23474;SDS011;11910;52.086;21.066;2023-11-19T02:47:22;67.25;;;34.63;;
23474;SDS011;11910;52.086;21.066;2023-11-19T02:49:49;63.25;;;35.05;;
23474;SDS011;11910;52.086;21.066;2023-11-19T02:52:14;63.55;;;35.10;;
23474;SDS011;11910;52.086;21.066;2023-11-19T02:54:40;59.15;;;32.70;;
23474;SDS011;11910;52.086;21.066;2023-11-19T02:57:07;62.80;;;33.13;;
23474;SDS011;11910;52.086;21.066;2023-11-19T02:59:37;62.13;;;32.80;;
23474;SDS011;11910;52.086;21.066;2023-11-19T03:02:07;57.15;;;32.28;;
23474;SDS011;11910;52.086;21.066;2023-11-19T03:04:36;59.78;;;32.40;;
23474;SDS011;11910;52.086;21.066;2023-11-19T03:07:06;60.50;;;32.38;;
23474;SDS011;11910;52.086;21.066;2023-11-19T03:09:34;58.97;;;32.17;;
23474;SDS011;11910;52.086;21.066;2023-11-19T03:12:00;57.88;;;32.00;;
23474;SDS011;11910;52.086;21.066;2023-11-19T03:14:26;55.35;;;32.63;;
23474;SDS011;11910;52.086;21.066;2023-11-19T03:16:52;61.35;;;32.33;;
23474;SDS011;11910;52.086;21.066;2023-11-19T03:19:18;60.65;;;32.28;;
23474;SDS011;11910;52.086;21.066;2023-11-19T03:21:44;64.88;;;32.88;;
23474;SDS011;11910;52.086;21.066;2023-11-19T03:24:09;68.35;;;34.65;;
23474;SDS011;11910;52.086;21.066;2023-11-19T03:26:37;66.43;;;33.30;;
23474;SDS011;11910;52.086;21.066;2023-11-19T03:29:03;72.97;;;35.40;;
23474;SDS011;11910;52.086;21.066;2023-11-19T03:31:28;63.38;;;32.72;;
23474;SDS011;11910;52.086;21.066;2023-11-19T03:33:54;79.75;;;35.75;;
23474;SDS011;11910;52.086;21.066;2023-11-19T03:36:20;70.10;;;33.58;;
23474;SDS011;11910;52.086;21.066;2023-11-19T03:38:45;64.78;;;33.05;;
23474;SDS011;11910;52.086;21.066;2023-11-19T03:41:14;64.70;;;33.00;;
23474;SDS011;11910;52.086;21.066;2023-11-19T03:43:40;61.95;;;32.13;;
23474;SDS011;11910;52.086;21.066;2023-11-19T03:46:16;63.97;;;33.38;;
23474;SDS011;11910;52.086;21.066;2023-11-19T03:48:48;64.70;;;33.25;;
23474;SDS011;11910;52.086;21.066;2023-11-19T03:51:14;58.95;;;31.58;;
23474;SDS011;11910;52.086;21.066;2023-11-19T03:53:44;62.13;;;32.40;;
23474;SDS011;11910;52.086;21.066;2023-11-19T03:56:10;57.00;;;32.10;;
23474;SDS011;11910;52.086;21.066;2023-11-19T03:58:37;69.20;;;34.25;;
23474;SDS011;11910;52.086;21.066;2023-11-19T04:01:03;68.07;;;34.58;;
23474;SDS011;11910;52.086;21.066;2023-11-19T04:03:38;61.15;;;32.58;;
23474;SDS011;11910;52.086;21.066;2023-11-19T04:06:04;60.33;;;32.75;;
23474;SDS011;11910;52.086;21.066;2023-11-19T04:08:30;61.60;;;32.42;;
23474;SDS011;11910;52.086;21.066;2023-11-19T04:10:55;58.15;;;32.00;;
23474;SDS011;11910;52.086;21.066;2023-11-19T04:13:21;62.22;;;32.30;;
23474;SDS011;11910;52.086;21.066;2023-11-19T04:15:48;62.15;;;32.38;;
23474;SDS011;11910;52.086;21.066;2023-11-19T04:18:14;59.30;;;32.63;;
23474;SDS011;11910;52.086;21.066;2023-11-19T04:20:39;65.43;;;33.58;;
23474;SDS011;11910;52.086;21.066;2023-11-19T04:23:07;65.13;;;32.47;;
23474;SDS011;11910;52.086;21.066;2023-11-19T04:25:33;62.45;;;33.38;;
23474;SDS011;11910;52.086;21.066;2023-11-19T04:28:00;68.07;;;33.40;;
23474;SDS011;11910;52.086;21.066;2023-11-19T04:30:25;72.18;;;34.28;;
23474;SDS011;11910;52.086;21.066;2023-11-19T04:32:51;69.38;;;33.63;;
23474;SDS011;11910;52.086;21.066;2023-11-19T04:35:16;73.82;;;34.03;;
23474;SDS011;11910;52.086;21.066;2023-11-19T04:37:44;84.32;;;35.75;;
23474;SDS011;11910;52.086;21.066;2023-11-19T04:40:09;70.93;;;34.17;;
23474;SDS011;11910;52.086;21.066;2023-11-19T04:42:36;71.45;;;34.15;;
23474;SDS011;11910;52.086;21.066;2023-11-19T04:45:05;72.03;;;33.85;;
23474;SDS011;11910;52.086;21.066;2023-11-19T04:47:31;70.55;;;34.08;;
23474;SDS011;11910;52.086;21.066;2023-11-19T04:49:58;74.28;;;35.50;;
23474;SDS011;11910;52.086;21.066;2023-11-19T04:52:24;62.35;;;32.10;;
23474;SDS011;11910;52.086;21.066;2023-11-19T04:54:49;70.40;;;34.90;;
23474;SDS011;11910;52.086;21.066;2023-11-19T04:57:15;71.00;;;34.30;;
23474;SDS011;11910;52.086;21.066;2023-11-19T04:59:41;69.22;;;34.38;;
23474;SDS011;11910;52.086;21.066;2023-11-19T05:02:07;65.00;;;33.42;;
23474;SDS011;11910;52.086;21.066;2023-11-19T05:04:33;65.38;;;33.22;;
23474;SDS011;11910;52.086;21.066;2023-11-19T05:06:59;69.68;;;34.85;;
23474;SDS011;11910;52.086;21.066;2023-11-19T05:09:24;65.72;;;34.50;;
23474;SDS011;11910;52.086;21.066;2023-11-19T05:11:50;65.60;;;33.42;;
23474;SDS011;11910;52.086;21.066;2023-11-19T05:14:16;70.72;;;34.05;;
23474;SDS011;11910;52.086;21.066;2023-11-19T05:16:41;76.70;;;34.55;;
23474;SDS011;11910;52.086;21.066;2023-11-19T05:19:07;68.30;;;34.00;;
23474;SDS011;11910;52.086;21.066;2023-11-19T05:21:34;58.63;;;31.60;;
23474;SDS011;11910;52.086;21.066;2023-11-19T05:24:00;59.28;;;32.42;;
23474;SDS011;11910;52.086;21.066;2023-11-19T05:26:32;63.55;;;33.30;;
23474;SDS011;11910;52.086;21.066;2023-11-19T05:28:57;63.35;;;32.33;;
23474;SDS011;11910;52.086;21.066;2023-11-19T05:31:23;55.15;;;30.60;;
23474;SDS011;11910;52.086;21.066;2023-11-19T05:33:48;55.35;;;30.50;;
23474;SDS011;11910;52.086;21.066;2023-11-19T05:36:14;60.67;;;31.95;;
23474;SDS011;11910;52.086;21.066;2023-11-19T05:38:40;62.28;;;32.00;;
23474;SDS011;11910;52.086;21.066;2023-11-19T05:41:05;55.42;;;30.27;;
23474;SDS011;11910;52.086;21.066;2023-11-19T05:43:31;58.72;;;32.22;;
23474;SDS011;11910;52.086;21.066;2023-11-19T05:45:57;58.40;;;30.55;;
23474;SDS011;11910;52.086;21.066;2023-11-19T05:48:24;51.88;;;29.83;;
23474;SDS011;11910;52.086;21.066;2023-11-19T05:50:51;44.50;;;26.95;;
23474;SDS011;11910;52.086;21.066;2023-11-19T05:53:17;51.88;;;29.00;;
23474;SDS011;11910;52.086;21.066;2023-11-19T05:55:42;45.10;;;25.60;;
23474;SDS011;11910;52.086;21.066;2023-11-19T05:58:14;45.13;;;26.35;;
23474;SDS011;11910;52.086;21.066;2023-11-19T06:00:40;37.75;;;23.90;;
23474;SDS011;11910;52.086;21.066;2023-11-19T06:03:09;39.40;;;23.77;;
23474;SDS011;11910;52.086;21.066;2023-11-19T06:05:35;36.13;;;22.77;;
23474;SDS011;11910;52.086;21.066;2023-11-19T06:08:00;36.85;;;22.35;;
23474;SDS011;11910;52.086;21.066;2023-11-19T06:10:26;39.08;;;22.73;;
23474;SDS011;11910;52.086;21.066;2023-11-19T06:12:57;33.60;;;20.73;;
23474;SDS011;11910;52.086;21.066;2023-11-19T06:15:26;30.98;;;18.92;;
23474;SDS011;11910;52.086;21.066;2023-11-19T06:17:54;33.00;;;20.17;;
23474;SDS011;11910;52.086;21.066;2023-11-19T06:20:20;30.00;;;18.85;;
23474;SDS011;11910;52.086;21.066;2023-11-19T06:22:46;27.08;;;17.63;;
23474;SDS011;11910;52.086;21.066;2023-11-19T06:25:12;27.02;;;17.58;;
23474;SDS011;11910;52.086;21.066;2023-11-19T06:27:39;25.58;;;17.25;;
23474;SDS011;11910;52.086;21.066;2023-11-19T06:30:08;27.00;;;16.95;;
23474;SDS011;11910;52.086;21.066;2023-11-19T06:32:34;27.48;;;17.60;;
23474;SDS011;11910;52.086;21.066;2023-11-19T06:35:00;27.45;;;17.55;;
23474;SDS011;11910;52.086;21.066;2023-11-19T06:37:26;25.73;;;16.85;;
23474;SDS011;11910;52.086;21.066;2023-11-19T06:39:52;23.48;;;15.95;;
23474;SDS011;11910;52.086;21.066;2023-11-19T06:42:17;19.75;;;14.07;;
23474;SDS011;11910;52.086;21.066;2023-11-19T06:44:43;20.42;;;14.10;;
23474;SDS011;11910;52.086;21.066;2023-11-19T06:47:09;20.35;;;14.57;;
23474;SDS011;11910;52.086;21.066;2023-11-19T06:49:34;20.38;;;14.15;;
23474;SDS011;11910;52.086;21.066;2023-11-19T06:52:00;20.98;;;13.85;;
23474;SDS011;11910;52.086;21.066;2023-11-19T06:54:25;20.33;;;14.18;;
23474;SDS011;11910;52.086;21.066;2023-11-19T06:56:51;20.45;;;14.60;;
23474;SDS011;11910;52.086;21.066;2023-11-19T06:59:16;20.60;;;15.60;;
23474;SDS011;11910;52.086;21.066;2023-11-19T07:01:42;20.50;;;15.05;;
23474;SDS011;11910;52.086;21.066;2023-11-19T07:04:11;22.92;;;15.35;;
23474;SDS011;11910;52.086;21.066;2023-11-19T07:06:37;21.65;;;16.10;;
23474;SDS011;11910;52.086;21.066;2023-11-19T07:09:05;20.85;;;14.95;;
23474;SDS011;11910;52.086;21.066;2023-11-19T07:11:38;22.27;;;16.30;;
23474;SDS011;11910;52.086;21.066;2023-11-19T07:14:04;21.65;;;15.25;;
23474;SDS011;11910;52.086;21.066;2023-11-19T07:16:31;22.10;;;16.17;;
23474;SDS011;11910;52.086;21.066;2023-11-19T07:18:59;20.58;;;15.32;;
23474;SDS011;11910;52.086;21.066;2023-11-19T07:21:28;24.70;;;17.38;;
23474;SDS011;11910;52.086;21.066;2023-11-19T07:23:57;25.02;;;17.80;;
23474;SDS011;11910;52.086;21.066;2023-11-19T07:26:22;25.33;;;18.88;;
23474;SDS011;11910;52.086;21.066;2023-11-19T07:28:48;23.70;;;17.38;;
23474;SDS011;11910;52.086;21.066;2023-11-19T07:31:15;23.45;;;17.85;;
23474;SDS011;11910;52.086;21.066;2023-11-19T07:33:41;24.42;;;17.63;;
23474;SDS011;11910;52.086;21.066;2023-11-19T07:36:08;23.15;;;17.77;;
23474;SDS011;11910;52.086;21.066;2023-11-19T07:38:34;24.45;;;17.48;;
23474;SDS011;11910;52.086;21.066;2023-11-19T07:41:00;24.70;;;17.70;;
23474;SDS011;11910;52.086;21.066;2023-11-19T07:43:26;26.95;;;17.75;;
23474;SDS011;11910;52.086;21.066;2023-11-19T07:45:51;25.65;;;18.98;;
23474;SDS011;11910;52.086;21.066;2023-11-19T07:48:17;27.00;;;19.50;;
23474;SDS011;11910;52.086;21.066;2023-11-19T07:50:47;29.95;;;20.42;;
23474;SDS011;11910;52.086;21.066;2023-11-19T07:53:15;29.38;;;20.55;;
23474;SDS011;11910;52.086;21.066;2023-11-19T07:55:41;46.72;;;29.90;;
23474;SDS011;11910;52.086;21.066;2023-11-19T07:58:08;38.10;;;25.58;;
23474;SDS011;11910;52.086;21.066;2023-11-19T08:00:35;35.25;;;23.75;;
23474;SDS011;11910;52.086;21.066;2023-11-19T08:03:01;32.85;;;21.63;;
23474;SDS011;11910;52.086;21.066;2023-11-19T08:05:26;29.80;;;21.60;;
23474;SDS011;11910;52.086;21.066;2023-11-19T08:07:52;31.40;;;21.58;;
23474;SDS011;11910;52.086;21.066;2023-11-19T08:10:20;29.60;;;21.08;;
23474;SDS011;11910;52.086;21.066;2023-11-19T08:12:46;28.65;;;20.13;;
23474;SDS011;11910;52.086;21.066;2023-11-19T08:15:12;30.08;;;20.98;;
23474;SDS011;11910;52.086;21.066;2023-11-19T08:17:37;28.67;;;20.52;;
23474;SDS011;11910;52.086;21.066;2023-11-19T08:20:03;28.38;;;20.10;;
23474;SDS011;11910;52.086;21.066;2023-11-19T08:22:30;29.77;;;20.73;;
23474;SDS011;11910;52.086;21.066;2023-11-19T08:24:55;31.17;;;21.58;;
23474;SDS011;11910;52.086;21.066;2023-11-19T08:27:21;29.98;;;21.02;;
23474;SDS011;11910;52.086;21.066;2023-11-19T08:29:53;26.90;;;19.42;;
23474;SDS011;11910;52.086;21.066;2023-11-19T08:32:20;27.60;;;19.73;;
23474;SDS011;11910;52.086;21.066;2023-11-19T08:34:46;28.08;;;20.50;;
23474;SDS011;11910;52.086;21.066;2023-11-19T08:37:11;28.83;;;19.30;;
23474;SDS011;11910;52.086;21.066;2023-11-19T08:39:38;27.35;;;19.75;;
23474;SDS011;11910;52.086;21.066;2023-11-19T08:42:03;27.45;;;19.00;;
23474;SDS011;11910;52.086;21.066;2023-11-19T08:44:29;27.20;;;19.75;;
23474;SDS011;11910;52.086;21.066;2023-11-19T08:46:55;27.98;;;20.13;;
23474;SDS011;11910;52.086;21.066;2023-11-19T08:49:20;29.23;;;20.25;;
23474;SDS011;11910;52.086;21.066;2023-11-19T08:51:46;29.50;;;21.27;;
23474;SDS011;11910;52.086;21.066;2023-11-19T08:54:11;28.30;;;20.58;;
23474;SDS011;11910;52.086;21.066;2023-11-19T08:56:38;26.75;;;19.88;;
23474;SDS011;11910;52.086;21.066;2023-11-19T08:59:04;27.88;;;19.48;;
23474;SDS011;11910;52.086;21.066;2023-11-19T09:01:30;29.27;;;20.77;;
23474;SDS011;11910;52.086;21.066;2023-11-19T09:03:56;29.17;;;20.10;;
23474;SDS011;11910;52.086;21.066;2023-11-19T09:06:22;25.02;;;19.08;;
23474;SDS011;11910;52.086;21.066;2023-11-19T09:08:48;25.88;;;18.55;;
23474;SDS011;11910;52.086;21.066;2023-11-19T09:11:14;30.77;;;20.63;;
23474;SDS011;11910;52.086;21.066;2023-11-19T09:13:39;25.27;;;18.30;;
23474;SDS011;11910;52.086;21.066;2023-11-19T09:16:05;28.77;;;19.88;;
23474;SDS011;11910;52.086;21.066;2023-11-19T09:18:31;26.52;;;18.55;;
23474;SDS011;11910;52.086;21.066;2023-11-19T09:20:57;29.13;;;19.27;;
23474;SDS011;11910;52.086;21.066;2023-11-19T09:23:23;28.65;;;20.20;;
23474;SDS011;11910;52.086;21.066;2023-11-19T09:25:54;28.10;;;19.67;;
23474;SDS011;11910;52.086;21.066;2023-11-19T09:28:20;29.33;;;20.13;;
23474;SDS011;11910;52.086;21.066;2023-11-19T09:30:48;27.23;;;19.15;;
23474;SDS011;11910;52.086;21.066;2023-11-19T09:33:13;26.83;;;18.80;;
23474;SDS011;11910;52.086;21.066;2023-11-19T09:35:39;25.20;;;18.52;;
23474;SDS011;11910;52.086;21.066;2023-11-19T09:38:05;28.42;;;18.77;;
23474;SDS011;11910;52.086;21.066;2023-11-19T09:40:31;28.70;;;19.50;;
23474;SDS011;11910;52.086;21.066;2023-11-19T09:42:57;27.90;;;19.75;;
23474;SDS011;11910;52.086;21.066;2023-11-19T09:45:23;28.55;;;19.95;;
23474;SDS011;11910;52.086;21.066;2023-11-19T09:47:52;29.05;;;19.92;;
23474;SDS011;11910;52.086;21.066;2023-11-19T09:50:20;25.88;;;18.60;;
23474;SDS011;11910;52.086;21.066;2023-11-19T09:52:46;26.85;;;19.88;;
23474;SDS011;11910;52.086;21.066;2023-11-19T09:55:12;29.42;;;20.52;;
23474;SDS011;11910;52.086;21.066;2023-11-19T09:57:39;27.95;;;19.23;;
23474;SDS011;11910;52.086;21.066;2023-11-19T10:00:07;31.17;;;20.85;;
23474;SDS011;11910;52.086;21.066;2023-11-19T10:02:35;28.38;;;20.17;;
23474;SDS011;11910;52.086;21.066;2023-11-19T10:05:02;30.90;;;20.02;;
23474;SDS011;11910;52.086;21.066;2023-11-19T10:07:30;28.98;;;19.90;;
23474;SDS011;11910;52.086;21.066;2023-11-19T10:09:58;28.40;;;19.88;;
23474;SDS011;11910;52.086;21.066;2023-11-19T10:12:29;26.42;;;18.80;;
23474;SDS011;11910;52.086;21.066;2023-11-19T10:14:56;28.23;;;19.60;;
23474;SDS011;11910;52.086;21.066;2023-11-19T10:17:32;28.58;;;19.25;;
23474;SDS011;11910;52.086;21.066;2023-11-19T10:19:58;31.55;;;20.20;;
23474;SDS011;11910;52.086;21.066;2023-11-19T10:22:24;33.13;;;20.40;;
23474;SDS011;11910;52.086;21.066;2023-11-19T10:24:51;32.50;;;20.33;;
23474;SDS011;11910;52.086;21.066;2023-11-19T10:27:17;29.55;;;20.23;;
23474;SDS011;11910;52.086;21.066;2023-11-19T10:29:46;32.78;;;21.48;;
23474;SDS011;11910;52.086;21.066;2023-11-19T10:32:12;30.17;;;20.90;;
23474;SDS011;11910;52.086;21.066;2023-11-19T10:34:41;36.28;;;22.35;;
23474;SDS011;11910;52.086;21.066;2023-11-19T10:37:08;31.30;;;22.23;;
23474;SDS011;11910;52.086;21.066;2023-11-19T10:39:52;29.25;;;20.92;;
23474;SDS011;11910;52.086;21.066;2023-11-19T10:42:21;30.80;;;20.48;;
23474;SDS011;11910;52.086;21.066;2023-11-19T10:44:47;32.08;;;21.90;;
23474;SDS011;11910;52.086;21.066;2023-11-19T10:47:15;33.10;;;21.88;;
23474;SDS011;11910;52.086;21.066;2023-11-19T10:49:44;34.35;;;21.98;;
23474;SDS011;11910;52.086;21.066;2023-11-19T10:52:15;31.83;;;21.80;;
23474;SDS011;11910;52.086;21.066;2023-11-19T10:54:49;34.10;;;22.95;;
23474;SDS011;11910;52.086;21.066;2023-11-19T10:57:21;34.33;;;22.48;;
23474;SDS011;11910;52.086;21.066;2023-11-19T10:59:47;33.03;;;21.83;;
23474;SDS011;11910;52.086;21.066;2023-11-19T11:02:16;32.72;;;21.48;;
23474;SDS011;11910;52.086;21.066;2023-11-19T11:04:46;29.60;;;21.15;;
23474;SDS011;11910;52.086;21.066;2023-11-19T11:07:14;32.97;;;22.88;;
23474;SDS011;11910;52.086;21.066;2023-11-19T11:09:42;34.72;;;23.77;;
23474;SDS011;11910;52.086;21.066;2023-11-19T11:12:11;35.65;;;23.98;;
23474;SDS011;11910;52.086;21.066;2023-11-19T11:14:38;38.33;;;24.13;;
23474;SDS011;11910;52.086;21.066;2023-11-19T11:17:05;37.25;;;23.85;;
23474;SDS011;11910;52.086;21.066;2023-11-19T11:19:33;32.58;;;22.40;;
23474;SDS011;11910;52.086;21.066;2023-11-19T11:21:59;34.65;;;22.80;;
23474;SDS011;11910;52.086;21.066;2023-11-19T11:33:05;36.95;;;24.65;;
23474;SDS011;11910;52.086;21.066;2023-11-19T11:38:16;34.83;;;24.52;;
23474;SDS011;11910;52.086;21.066;2023-11-19T11:43:52;51.50;;;34.90;;
23474;SDS011;11910;52.086;21.066;2023-11-19T11:49:01;77.00;;;47.53;;
23474;SDS011;11910;52.086;21.066;2023-11-19T11:54:08;38.95;;;26.15;;
23474;SDS011;11910;52.086;21.066;2023-11-19T11:59:42;39.58;;;26.38;;
23474;SDS011;11910;52.086;21.066;2023-11-19T12:02:11;35.78;;;24.63;;
23474;SDS011;11910;52.086;21.066;2023-11-19T12:04:41;37.00;;;24.60;;
23474;SDS011;11910;52.086;21.066;2023-11-19T12:07:23;37.65;;;25.25;;
23474;SDS011;11910;52.086;21.066;2023-11-19T12:10:06;40.10;;;25.88;;
23474;SDS011;11910;52.086;21.066;2023-11-19T12:12:32;36.45;;;24.52;;
23474;SDS011;11910;52.086;21.066;2023-11-19T12:14:59;38.67;;;25.23;;
23474;SDS011;11910;52.086;21.066;2023-11-19T12:20:04;35.55;;;24.02;;
23474;SDS011;11910;52.086;21.066;2023-11-19T12:22:33;33.25;;;22.67;;
23474;SDS011;11910;52.086;21.066;2023-11-19T12:25:10;36.00;;;23.83;;
23474;SDS011;11910;52.086;21.066;2023-11-19T12:27:43;33.35;;;22.85;;
23474;SDS011;11910;52.086;21.066;2023-11-19T12:30:23;32.95;;;22.60;;
23474;SDS011;11910;52.086;21.066;2023-11-19T12:32:50;33.40;;;22.35;;
23474;SDS011;11910;52.086;21.066;2023-11-19T12:35:18;31.13;;;22.35;;
23474;SDS011;11910;52.086;21.066;2023-11-19T12:40:17;29.52;;;21.02;;
23474;SDS011;11910;52.086;21.066;2023-11-19T12:42:46;31.13;;;21.83;;
23474;SDS011;11910;52.086;21.066;2023-11-19T12:45:13;30.67;;;22.45;;
23474;SDS011;11910;52.086;21.066;2023-11-19T12:47:39;32.15;;;22.27;;
23474;SDS011;11910;52.086;21.066;2023-11-19T12:50:06;32.33;;;21.50;;
23474;SDS011;11910;52.086;21.066;2023-11-19T12:52:33;31.85;;;21.27;;
23474;SDS011;11910;52.086;21.066;2023-11-19T12:55:05;32.13;;;21.85;;
23474;SDS011;11910;52.086;21.066;2023-11-19T12:57:52;33.65;;;22.48;;
23474;SDS011;11910;52.086;21.066;2023-11-19T13:00:20;34.85;;;23.45;;
23474;SDS011;11910;52.086;21.066;2023-11-19T13:02:47;39.08;;;26.60;;
23474;SDS011;11910;52.086;21.066;2023-11-19T13:05:46;34.03;;;23.73;;
23474;SDS011;11910;52.086;21.066;2023-11-19T13:08:06;38.97;;;26.35;;
23474;SDS011;11910;52.086;21.066;2023-11-19T13:10:54;38.05;;;24.90;;
23474;SDS011;11910;52.086;21.066;2023-11-19T13:13:19;41.45;;;27.25;;
23474;SDS011;11910;52.086;21.066;2023-11-19T13:15:45;39.20;;;26.45;;
23474;SDS011;11910;52.086;21.066;2023-11-19T13:18:11;37.72;;;25.38;;
23474;SDS011;11910;52.086;21.066;2023-11-19T13:20:37;41.38;;;27.10;;
23474;SDS011;11910;52.086;21.066;2023-11-19T13:23:04;40.75;;;26.50;;
23474;SDS011;11910;52.086;21.066;2023-11-19T13:25:30;39.92;;;26.38;;
23474;SDS011;11910;52.086;21.066;2023-11-19T13:27:57;41.35;;;26.38;;
23474;SDS011;11910;52.086;21.066;2023-11-19T13:30:23;40.15;;;26.05;;
23474;SDS011;11910;52.086;21.066;2023-11-19T13:32:49;37.72;;;25.98;;
23474;SDS011;11910;52.086;21.066;2023-11-19T13:35:16;40.63;;;26.65;;
23474;SDS011;11910;52.086;21.066;2023-11-19T13:37:42;41.63;;;27.02;;
23474;SDS011;11910;52.086;21.066;2023-11-19T13:40:09;45.45;;;28.42;;
23474;SDS011;11910;52.086;21.066;2023-11-19T13:42:39;54.28;;;33.03;;
23474;SDS011;11910;52.086;21.066;2023-11-19T13:45:10;45.67;;;28.45;;
23474;SDS011;11910;52.086;21.066;2023-11-19T13:50:08;43.15;;;27.58;;
23474;SDS011;11910;52.086;21.066;2023-11-19T13:52:38;35.57;;;21.87;;
23474;SDS011;11910;52.086;21.066;2023-11-19T13:55:05;43.42;;;26.90;;
23474;SDS011;11910;52.086;21.066;2023-11-19T13:57:32;39.17;;;26.23;;
23474;SDS011;11910;52.086;21.066;2023-11-19T13:59:59;43.28;;;27.58;;
23474;SDS011;11910;52.086;21.066;2023-11-19T14:02:26;41.42;;;26.75;;
23474;SDS011;11910;52.086;21.066;2023-11-19T14:05:01;45.74;;;28.12;;
23474;SDS011;11910;52.086;21.066;2023-11-19T14:07:27;45.92;;;28.42;;
23474;SDS011;11910;52.086;21.066;2023-11-19T14:09:53;48.47;;;29.02;;
23474;SDS011;11910;52.086;21.066;2023-11-19T14:12:19;45.25;;;28.17;;
23474;SDS011;11910;52.086;21.066;2023-11-19T14:14:45;48.15;;;27.75;;
23474;SDS011;11910;52.086;21.066;2023-11-19T14:17:11;48.92;;;28.70;;
23474;SDS011;11910;52.086;21.066;2023-11-19T14:19:36;44.63;;;27.73;;
23474;SDS011;11910;52.086;21.066;2023-11-19T14:22:04;45.47;;;28.40;;
23474;SDS011;11910;52.086;21.066;2023-11-19T14:24:29;45.05;;;27.02;;
23474;SDS011;11910;52.086;21.066;2023-11-19T14:26:55;49.17;;;29.50;;
23474;SDS011;11910;52.086;21.066;2023-11-19T14:29:24;46.03;;;29.15;;
23474;SDS011;11910;52.086;21.066;2023-11-19T14:31:51;51.53;;;30.40;;
23474;SDS011;11910;52.086;21.066;2023-11-19T14:34:18;52.28;;;31.40;;
23474;SDS011;11910;52.086;21.066;2023-11-19T14:36:44;56.97;;;32.03;;
23474;SDS011;11910;52.086;21.066;2023-11-19T14:39:10;55.35;;;31.17;;